createdAt,value
2019-05-26T00:00:28.147Z,1011.22
2019-05-26T00:01:28.116Z,1011.22
2019-05-26T00:02:28.164Z,1011.24
2019-05-26T00:03:28.093Z,1011.17
2019-05-26T00:04:28.205Z,1011.18
2019-05-26T00:05:28.132Z,1011.24
2019-05-26T00:06:28.107Z,1011.16
2019-05-26T00:07:30.851Z,1011.18
2019-05-26T00:08:30.148Z,1011.10
2019-05-26T00:09:28.047Z,1011.15
2019-05-26T00:10:35.077Z,1011.11
2019-05-26T00:11:28.018Z,1011.10
2019-05-26T00:12:28.024Z,1011.11
2019-05-26T00:13:27.983Z,1011.05
2019-05-26T00:14:30.016Z,1011.10
2019-05-26T00:15:27.962Z,1011.08
2019-05-26T00:16:28.973Z,1011.04
2019-05-26T00:17:27.940Z,1011.03
2019-05-26T00:18:27.964Z,1010.99
2019-05-26T00:19:27.935Z,1010.99
2019-05-26T00:20:27.977Z,1010.99
2019-05-26T00:21:27.942Z,1011.02
2019-05-26T00:22:27.999Z,1011.00
2019-05-26T00:23:27.880Z,1011.01
2019-05-26T00:24:27.933Z,1011.01
2019-05-26T00:25:27.853Z,1010.93
2019-05-26T00:26:27.916Z,1010.94
2019-05-26T00:27:27.838Z,1010.96
2019-05-26T00:28:27.828Z,1010.94
2019-05-26T00:29:27.846Z,1010.94
2019-05-26T00:30:27.841Z,1010.89
2019-05-26T00:31:27.786Z,1010.90
2019-05-26T00:32:27.860Z,1010.86
2019-05-26T00:33:27.761Z,1010.86
2019-05-26T00:34:27.767Z,1010.82
2019-05-26T00:35:27.755Z,1010.82
2019-05-26T00:36:27.780Z,1010.82
2019-05-26T00:37:27.719Z,1010.81
2019-05-26T00:38:27.795Z,1010.84
2019-05-26T00:39:27.695Z,1010.82
2019-05-26T00:40:27.737Z,1010.78
2019-05-26T00:41:27.679Z,1010.76
2019-05-26T00:42:27.718Z,1010.74
2019-05-26T00:43:27.649Z,1010.70
2019-05-26T00:44:27.732Z,1010.69
2019-05-26T00:45:27.648Z,1010.74
2019-05-26T00:46:27.644Z,1010.68
2019-05-26T00:47:27.608Z,1010.68
2019-05-26T00:48:27.658Z,1010.59
2019-05-26T00:49:27.586Z,1010.67
2019-05-26T00:50:27.600Z,1010.70
2019-05-26T00:51:27.559Z,1010.64
2019-05-26T00:52:29.637Z,1010.62
2019-05-26T00:53:27.537Z,1010.64
2019-05-26T00:54:29.647Z,1010.62
2019-05-26T00:55:27.553Z,1010.59
2019-05-26T00:56:28.536Z,1010.55
2019-05-26T00:57:27.495Z,1010.57
2019-05-26T00:58:27.524Z,1010.55
2019-05-26T00:59:27.471Z,1010.55
2019-05-26T01:00:28.550Z,1010.58
2019-05-26T01:01:27.456Z,1010.52
2019-05-26T01:02:28.473Z,1010.51
2019-05-26T01:03:27.426Z,1010.45
2019-05-26T01:04:27.461Z,1010.38
2019-05-26T01:05:27.421Z,1010.41
2019-05-26T01:06:27.474Z,1010.45
2019-05-26T01:07:27.398Z,1010.44
2019-05-26T01:08:27.386Z,1010.48
2019-05-26T01:09:27.362Z,1010.41
2019-05-26T01:10:27.432Z,1010.41
2019-05-26T01:11:27.339Z,1010.40
2019-05-26T01:12:27.412Z,1010.40
2019-05-26T01:13:27.315Z,1010.45
2019-05-26T01:14:27.331Z,1010.37
2019-05-26T01:15:27.306Z,1010.36
2019-05-26T01:16:27.337Z,1010.36
2019-05-26T01:17:27.275Z,1010.37
2019-05-26T01:18:27.352Z,1010.33
2019-05-26T01:19:27.247Z,1010.35
2019-05-26T01:20:27.292Z,1010.35
2019-05-26T01:21:27.227Z,1010.38
2019-05-26T01:22:27.277Z,1010.35
2019-05-26T01:23:27.205Z,1010.38
2019-05-26T01:24:27.291Z,1010.31
2019-05-26T01:25:27.195Z,1010.33
2019-05-26T01:26:27.202Z,1010.27
2019-05-26T01:27:27.159Z,1010.27
2019-05-26T01:28:27.216Z,1010.32
2019-05-26T01:29:27.138Z,1010.28
2019-05-26T01:30:27.161Z,1010.28
2019-05-26T01:31:27.113Z,1010.25
2019-05-26T01:32:27.142Z,1010.27
2019-05-26T01:33:27.091Z,1010.24
2019-05-26T01:34:27.154Z,1010.28
2019-05-26T01:35:27.086Z,1010.32
2019-05-26T01:36:27.169Z,1010.25
2019-05-26T01:37:27.047Z,1010.21
2019-05-26T01:38:42.029Z,1010.22
2019-05-26T01:39:27.030Z,1010.23
2019-05-26T01:40:27.034Z,1010.23
2019-05-26T01:41:27.009Z,1010.27
2019-05-26T01:42:27.006Z,1010.23
2019-05-26T01:43:26.984Z,1010.25
2019-05-26T01:44:27.017Z,1010.21
2019-05-26T01:45:26.974Z,1010.24
2019-05-26T01:46:27.102Z,1010.20
2019-05-26T01:47:26.937Z,1010.24
2019-05-26T01:48:26.943Z,1010.25
2019-05-26T01:49:26.916Z,1010.27
2019-05-26T01:50:26.990Z,1010.23
2019-05-26T01:51:26.893Z,1010.25
2019-05-26T01:52:26.973Z,1010.19
2019-05-26T01:53:26.871Z,1010.22
2019-05-26T01:54:26.883Z,1010.17
2019-05-26T01:55:26.876Z,1010.18
2019-05-26T01:56:26.897Z,1010.17
2019-05-26T01:57:26.827Z,1010.16
2019-05-26T01:58:26.910Z,1010.12
2019-05-26T01:59:26.802Z,1010.13
2019-05-26T02:00:26.821Z,1010.12
2019-05-26T02:01:26.798Z,1010.13
2019-05-26T02:02:26.837Z,1010.12
2019-05-26T02:03:26.764Z,1010.10
2019-05-26T02:04:26.865Z,1010.07
2019-05-26T02:05:26.741Z,1010.09
2019-05-26T02:06:26.793Z,1010.07
2019-05-26T02:07:26.712Z,1010.09
2019-05-26T02:08:38.757Z,1010.10
2019-05-26T02:09:27.689Z,1010.00
2019-05-26T02:10:26.788Z,1010.02
2019-05-26T02:11:26.684Z,1010.03
2019-05-26T02:12:26.698Z,1009.96
2019-05-26T02:13:26.649Z,1009.93
2019-05-26T02:14:26.724Z,1009.96
2019-05-26T02:15:26.628Z,1009.96
2019-05-26T02:16:26.655Z,1009.90
2019-05-26T02:17:26.615Z,1009.93
2019-05-26T02:18:26.637Z,1009.91
2019-05-26T02:19:26.585Z,1009.86
2019-05-26T02:20:26.650Z,1009.95
2019-05-26T02:21:26.572Z,1009.89
2019-05-26T02:22:33.532Z,1009.86
2019-05-26T02:23:26.537Z,1009.89
2019-05-26T02:24:27.601Z,1009.88
2019-05-26T02:25:26.516Z,1009.87
2019-05-26T02:26:27.541Z,1009.85
2019-05-26T02:27:26.492Z,1009.84
2019-05-26T02:28:26.503Z,1009.78
2019-05-26T02:29:26.470Z,1009.74
2019-05-26T02:30:26.515Z,1009.75
2019-05-26T02:31:26.470Z,1009.73
2019-05-26T02:32:26.529Z,1009.73
2019-05-26T02:33:26.430Z,1009.69
2019-05-26T02:34:26.443Z,1009.70
2019-05-26T02:35:26.405Z,1009.71
2019-05-26T02:36:26.493Z,1009.78
2019-05-26T02:37:26.384Z,1009.74
2019-05-26T02:38:26.826Z,1009.71
2019-05-26T02:39:26.366Z,1009.74
2019-05-26T02:40:26.379Z,1009.72
2019-05-26T02:41:26.360Z,1009.71
2019-05-26T02:42:26.395Z,1009.64
2019-05-26T02:43:26.324Z,1009.67
2019-05-26T02:44:26.409Z,1009.69
2019-05-26T02:45:26.295Z,1009.66
2019-05-26T02:46:26.350Z,1009.63
2019-05-26T02:47:26.272Z,1009.59
2019-05-26T02:48:26.336Z,1009.61
2019-05-26T02:49:26.256Z,1009.59
2019-05-26T02:50:26.356Z,1009.58
2019-05-26T02:51:26.249Z,1009.51
2019-05-26T02:52:26.258Z,1009.52
2019-05-26T02:53:26.210Z,1009.50
2019-05-26T02:54:26.274Z,1009.57
2019-05-26T02:55:26.186Z,1009.54
2019-05-26T02:56:26.216Z,1009.52
2019-05-26T02:57:26.162Z,1009.49
2019-05-26T02:58:26.205Z,1009.46
2019-05-26T02:59:26.144Z,1009.46
2019-05-26T03:00:26.211Z,1009.47
2019-05-26T03:01:26.132Z,1009.42
2019-05-26T03:02:26.122Z,1009.38
2019-05-26T03:03:26.099Z,1009.41
2019-05-26T03:04:26.137Z,1009.40
2019-05-26T03:05:26.074Z,1009.39
2019-05-26T03:06:26.180Z,1009.34
2019-05-26T03:07:26.056Z,1009.35
2019-05-26T03:08:33.032Z,1009.33
2019-05-26T03:09:26.030Z,1009.35
2019-05-26T03:10:27.100Z,1009.33
2019-05-26T03:11:26.043Z,1009.30
2019-05-26T03:12:27.008Z,1009.34
2019-05-26T03:13:25.990Z,1009.41
2019-05-26T03:14:26.016Z,1009.33
2019-05-26T03:15:25.962Z,1009.39
2019-05-26T03:16:26.042Z,1009.34
2019-05-26T03:17:25.940Z,1009.37
2019-05-26T03:18:26.025Z,1009.38
2019-05-26T03:19:25.920Z,1009.41
2019-05-26T03:20:25.941Z,1009.42
2019-05-26T03:21:25.911Z,1009.40
2019-05-26T03:22:25.952Z,1009.37
2019-05-26T03:23:25.875Z,1009.42
2019-05-26T03:24:25.966Z,1009.39
2019-05-26T03:25:25.850Z,1009.33
2019-05-26T03:26:25.879Z,1009.37
2019-05-26T03:27:25.850Z,1009.37
2019-05-26T03:28:25.890Z,1009.34
2019-05-26T03:29:25.814Z,1009.29
2019-05-26T03:30:25.906Z,1009.26
2019-05-26T03:31:25.788Z,1009.31
2019-05-26T03:32:25.845Z,1009.32
2019-05-26T03:33:25.765Z,1009.30
2019-05-26T03:34:25.877Z,1009.26
2019-05-26T03:35:25.748Z,1009.31
2019-05-26T03:36:25.843Z,1009.24
2019-05-26T03:37:25.732Z,1009.28
2019-05-26T03:38:25.756Z,1009.28
2019-05-26T03:39:42.675Z,1009.25
2019-05-26T03:40:26.687Z,1009.29
2019-05-26T03:41:25.776Z,1009.28
2019-05-26T03:42:25.679Z,1009.26
2019-05-26T03:43:25.684Z,1009.24
2019-05-26T03:44:25.654Z,1009.22
2019-05-26T03:45:25.697Z,1009.23
2019-05-26T03:46:25.620Z,1009.22
2019-05-26T03:47:25.642Z,1009.20
2019-05-26T03:48:25.598Z,1009.22
2019-05-26T03:49:25.626Z,1009.27
2019-05-26T03:50:25.573Z,1009.28
2019-05-26T03:51:25.639Z,1009.23
2019-05-26T03:52:25.574Z,1009.17
2019-05-26T03:53:25.653Z,1009.21
2019-05-26T03:54:25.530Z,1009.19
2019-05-26T03:55:32.536Z,1009.24
2019-05-26T03:56:25.518Z,1009.18
2019-05-26T03:57:26.529Z,1009.18
2019-05-26T03:58:25.491Z,1009.20
2019-05-26T03:59:25.488Z,1009.17
2019-05-26T04:00:25.463Z,1009.24
2019-05-26T04:01:25.511Z,1009.17
2019-05-26T04:02:25.455Z,1009.14
2019-05-26T04:03:25.516Z,1009.19
2019-05-26T04:04:25.452Z,1009.12
2019-05-26T04:05:25.431Z,1009.11
2019-05-26T04:06:25.400Z,1009.10
2019-05-26T04:07:25.470Z,1009.06
2019-05-26T04:08:25.374Z,1009.08
2019-05-26T04:09:25.490Z,1009.09
2019-05-26T04:10:25.353Z,1009.06
2019-05-26T04:11:25.373Z,1009.09
2019-05-26T04:12:25.348Z,1009.03
2019-05-26T04:13:25.380Z,1009.05
2019-05-26T04:14:25.312Z,1009.01
2019-05-26T04:15:25.406Z,1009.00
2019-05-26T04:16:25.287Z,1009.04
2019-05-26T04:17:25.342Z,1008.95
2019-05-26T04:18:25.264Z,1008.94
2019-05-26T04:19:25.318Z,1008.98
2019-05-26T04:20:25.243Z,1008.97
2019-05-26T04:21:25.332Z,1009.01
2019-05-26T04:22:25.250Z,1008.95
2019-05-26T04:23:25.323Z,1008.94
2019-05-26T04:24:25.195Z,1008.93
2019-05-26T04:25:25.274Z,1008.97
2019-05-26T04:26:25.179Z,1008.96
2019-05-26T04:27:25.199Z,1008.97
2019-05-26T04:28:25.155Z,1008.94
2019-05-26T04:29:25.184Z,1008.95
2019-05-26T04:30:25.132Z,1008.97
2019-05-26T04:31:25.200Z,1008.98
2019-05-26T04:32:25.121Z,1008.95
2019-05-26T04:33:25.107Z,1008.92
2019-05-26T04:34:25.084Z,1008.96
2019-05-26T04:35:25.123Z,1008.93
2019-05-26T04:36:25.060Z,1008.90
2019-05-26T04:37:28.546Z,1008.95
2019-05-26T04:38:25.039Z,1008.98
2019-05-26T04:39:32.111Z,1008.94
2019-05-26T04:40:27.509Z,1008.91
2019-05-26T04:41:32.024Z,1008.91
2019-05-26T04:42:25.010Z,1008.91
2019-05-26T04:43:27.031Z,1008.93
2019-05-26T04:44:24.991Z,1008.91
2019-05-26T04:45:24.984Z,1008.89
2019-05-26T04:46:24.960Z,1008.88
2019-05-26T04:47:25.027Z,1008.91
2019-05-26T04:48:24.932Z,1008.88
2019-05-26T04:49:25.014Z,1008.90
2019-05-26T04:50:24.912Z,1008.91
2019-05-26T04:51:24.927Z,1008.94
2019-05-26T04:52:24.907Z,1008.93
2019-05-26T04:53:24.936Z,1008.90
2019-05-26T04:54:24.872Z,1008.91
2019-05-26T04:55:24.964Z,1008.85
2019-05-26T04:56:24.848Z,1008.80
2019-05-26T04:57:24.897Z,1008.88
2019-05-26T04:58:24.824Z,1008.85
2019-05-26T04:59:24.880Z,1008.85
2019-05-26T05:00:24.799Z,1008.81
2019-05-26T05:01:24.889Z,1008.77
2019-05-26T05:02:24.813Z,1008.76
2019-05-26T05:03:24.806Z,1008.79
2019-05-26T05:04:24.755Z,1008.74
2019-05-26T05:05:24.814Z,1008.69
2019-05-26T05:06:24.738Z,1008.79
2019-05-26T05:07:28.250Z,1008.76
2019-05-26T05:08:24.729Z,1008.77
2019-05-26T05:09:24.743Z,1008.79
2019-05-26T05:10:40.947Z,1008.72
2019-05-26T05:11:25.680Z,1008.73
2019-05-26T05:12:24.761Z,1008.69
2019-05-26T05:13:25.121Z,1008.70
2019-05-26T05:14:24.671Z,1008.71
2019-05-26T05:15:24.636Z,1008.71
2019-05-26T05:16:24.685Z,1008.72
2019-05-26T05:17:24.618Z,1008.69
2019-05-26T05:18:24.730Z,1008.74
2019-05-26T05:19:24.591Z,1008.72
2019-05-26T05:20:24.610Z,1008.79
2019-05-26T05:21:24.568Z,1008.80
2019-05-26T05:22:24.624Z,1008.75
2019-05-26T05:23:24.560Z,1008.78
2019-05-26T05:24:32.523Z,1008.79
2019-05-26T05:25:24.523Z,1008.82
2019-05-26T05:26:24.518Z,1008.81
2019-05-26T05:27:24.501Z,1008.83
2019-05-26T05:28:26.542Z,1008.80
2019-05-26T05:29:24.484Z,1008.77
2019-05-26T05:30:25.499Z,1008.81
2019-05-26T05:31:24.455Z,1008.78
2019-05-26T05:32:24.487Z,1008.81
2019-05-26T05:33:24.454Z,1008.83
2019-05-26T05:34:24.536Z,1008.73
2019-05-26T05:35:24.416Z,1008.74
2019-05-26T05:36:24.412Z,1008.78
2019-05-26T05:37:25.287Z,1008.74
2019-05-26T05:38:24.456Z,1008.73
2019-05-26T05:39:24.367Z,1008.71
2019-05-26T05:40:24.439Z,1008.65
2019-05-26T05:41:24.345Z,1008.69
2019-05-26T05:42:24.352Z,1008.66
2019-05-26T05:43:24.339Z,1008.68
2019-05-26T05:44:24.364Z,1008.63
2019-05-26T05:45:24.310Z,1008.63
2019-05-26T05:46:24.381Z,1008.67
2019-05-26T05:47:24.277Z,1008.59
2019-05-26T05:48:24.319Z,1008.67
2019-05-26T05:49:24.255Z,1008.58
2019-05-26T05:50:24.305Z,1008.58
2019-05-26T05:51:24.235Z,1008.59
2019-05-26T05:52:24.317Z,1008.61
2019-05-26T05:53:24.224Z,1008.60
2019-05-26T05:54:24.229Z,1008.63
2019-05-26T05:55:24.190Z,1008.61
2019-05-26T05:56:24.241Z,1008.57
2019-05-26T05:57:24.167Z,1008.55
2019-05-26T05:58:24.205Z,1008.59
2019-05-26T05:59:24.142Z,1008.55
2019-05-26T06:00:24.167Z,1008.58
2019-05-26T06:01:24.123Z,1008.57
2019-05-26T06:02:24.182Z,1008.53
2019-05-26T06:03:24.114Z,1008.55
2019-05-26T06:04:24.195Z,1008.52
2019-05-26T06:05:24.075Z,1008.53
2019-05-26T06:06:24.105Z,1008.52
2019-05-26T06:07:24.054Z,1008.51
2019-05-26T06:08:26.099Z,1008.47
2019-05-26T06:09:24.031Z,1008.50
2019-05-26T06:10:41.029Z,1008.52
2019-05-26T06:11:24.011Z,1008.53
2019-05-26T06:12:26.092Z,1008.53
2019-05-26T06:13:24.004Z,1008.46
2019-05-26T06:14:26.078Z,1008.41
2019-05-26T06:15:23.966Z,1008.36
2019-05-26T06:16:23.971Z,1008.39
2019-05-26T06:17:23.947Z,1008.35
2019-05-26T06:18:24.013Z,1008.36
2019-05-26T06:19:23.923Z,1008.36
2019-05-26T06:20:23.997Z,1008.34
2019-05-26T06:21:23.900Z,1008.34
2019-05-26T06:22:23.908Z,1008.26
2019-05-26T06:23:23.892Z,1008.29
2019-05-26T06:24:23.932Z,1008.33
2019-05-26T06:25:23.864Z,1008.32
2019-05-26T06:26:23.935Z,1008.29
2019-05-26T06:27:23.830Z,1008.32
2019-05-26T06:28:23.931Z,1008.29
2019-05-26T06:29:23.809Z,1008.36
2019-05-26T06:30:23.866Z,1008.37
2019-05-26T06:31:23.787Z,1008.32
2019-05-26T06:32:23.876Z,1008.36
2019-05-26T06:33:23.779Z,1008.35
2019-05-26T06:34:23.787Z,1008.33
2019-05-26T06:35:23.742Z,1008.34
2019-05-26T06:36:23.802Z,1008.38
2019-05-26T06:37:23.720Z,1008.37
2019-05-26T06:38:23.745Z,1008.31
2019-05-26T06:39:23.698Z,1008.34
2019-05-26T06:40:23.724Z,1008.37
2019-05-26T06:41:32.779Z,1008.35
2019-05-26T06:42:24.664Z,1008.40
2019-05-26T06:43:23.775Z,1008.32
2019-05-26T06:44:23.640Z,1008.41
2019-05-26T06:45:23.655Z,1008.34
2019-05-26T06:46:23.619Z,1008.38
2019-05-26T06:47:23.673Z,1008.41
2019-05-26T06:48:26.719Z,1008.38
2019-05-26T06:49:23.686Z,1008.44
2019-05-26T06:50:23.573Z,1008.43
2019-05-26T06:51:24.622Z,1008.38
2019-05-26T06:52:23.555Z,1008.37
2019-05-26T06:53:24.638Z,1008.35
2019-05-26T06:54:23.545Z,1008.28
2019-05-26T06:55:32.531Z,1008.28
2019-05-26T06:56:23.508Z,1008.31
2019-05-26T06:57:23.619Z,1008.32
2019-05-26T06:58:23.488Z,1008.33
2019-05-26T06:59:25.524Z,1008.32
2019-05-26T07:00:23.464Z,1008.37
2019-05-26T07:01:24.482Z,1008.35
2019-05-26T07:02:23.440Z,1008.28
2019-05-26T07:03:23.476Z,1008.32
2019-05-26T07:04:23.437Z,1008.38
2019-05-26T07:05:23.486Z,1008.38
2019-05-26T07:06:23.398Z,1008.33
2019-05-26T07:07:23.397Z,1008.36
2019-05-26T07:08:23.446Z,1008.43
2019-05-26T07:09:23.442Z,1008.39
2019-05-26T07:10:23.360Z,1008.37
2019-05-26T07:11:23.426Z,1008.44
2019-05-26T07:12:23.330Z,1008.52
2019-05-26T07:13:23.337Z,1008.49
2019-05-26T07:14:23.322Z,1008.47
2019-05-26T07:15:23.350Z,1008.43
2019-05-26T07:16:36.867Z,1008.48
2019-05-26T07:17:24.275Z,1008.46
2019-05-26T07:18:23.372Z,1008.52
2019-05-26T07:19:23.267Z,1008.47
2019-05-26T07:20:23.282Z,1008.61
2019-05-26T07:21:23.231Z,1008.53
2019-05-26T07:22:23.297Z,1008.56
2019-05-26T07:23:23.207Z,1008.53
2019-05-26T07:24:23.237Z,1008.55
2019-05-26T07:25:23.186Z,1008.50
2019-05-26T07:26:23.220Z,1008.51
2019-05-26T07:27:23.162Z,1008.51
2019-05-26T07:28:23.234Z,1008.49
2019-05-26T07:29:23.156Z,1008.54
2019-05-26T07:30:23.581Z,1008.48
2019-05-26T07:31:23.117Z,1008.50
2019-05-26T07:32:23.160Z,1008.48
2019-05-26T07:33:23.099Z,1008.53
2019-05-26T07:34:23.207Z,1008.53
2019-05-26T07:35:23.072Z,1008.48
2019-05-26T07:36:23.084Z,1008.40
2019-05-26T07:37:23.054Z,1008.47
2019-05-26T07:38:38.048Z,1008.48
2019-05-26T07:39:23.042Z,1008.42
2019-05-26T07:40:23.026Z,1008.38
2019-05-26T07:41:23.004Z,1008.42
2019-05-26T07:42:23.022Z,1008.40
2019-05-26T07:43:22.983Z,1008.38
2019-05-26T07:44:23.068Z,1008.34
2019-05-26T07:45:22.962Z,1008.40
2019-05-26T07:46:23.049Z,1008.36
2019-05-26T07:47:22.937Z,1008.40
2019-05-26T07:48:22.967Z,1008.40
2019-05-26T07:49:22.931Z,1008.34
2019-05-26T07:50:22.910Z,1008.38
2019-05-26T07:51:22.895Z,1008.40
2019-05-26T07:52:22.990Z,1008.36
2019-05-26T07:53:22.870Z,1008.45
2019-05-26T07:54:25.836Z,1008.40
2019-05-26T07:55:22.848Z,1008.43
2019-05-26T07:56:22.914Z,1008.39
2019-05-26T07:57:22.825Z,1008.40
2019-05-26T07:58:22.827Z,1008.37
2019-05-26T07:59:22.817Z,1008.37
2019-05-26T08:00:22.795Z,1008.40
2019-05-26T08:01:24.524Z,1008.41
2019-05-26T08:02:22.855Z,1008.43
2019-05-26T08:03:22.760Z,1008.40
2019-05-26T08:04:22.768Z,1008.36
2019-05-26T08:05:22.736Z,1008.32
2019-05-26T08:06:22.779Z,1008.33
2019-05-26T08:07:23.295Z,1008.32
2019-05-26T08:08:22.793Z,1008.30
2019-05-26T08:09:22.711Z,1008.26
2019-05-26T08:10:22.684Z,1008.19
2019-05-26T08:11:22.670Z,1008.26
2019-05-26T08:12:26.913Z,1008.21
2019-05-26T08:13:23.646Z,1008.21
2019-05-26T08:14:22.766Z,1008.20
2019-05-26T08:15:22.624Z,1008.21
2019-05-26T08:16:22.646Z,1008.18
2019-05-26T08:17:22.602Z,1008.09
2019-05-26T08:18:22.656Z,1008.08
2019-05-26T08:19:22.617Z,1008.11
2019-05-26T08:20:22.570Z,1008.12
2019-05-26T08:21:22.556Z,1008.10
2019-05-26T08:22:29.548Z,1008.06
2019-05-26T08:23:22.539Z,1008.13
2019-05-26T08:24:24.562Z,1008.06
2019-05-26T08:25:22.529Z,1008.07
2019-05-26T08:26:23.532Z,1008.09
2019-05-26T08:27:22.487Z,1008.02
2019-05-26T08:28:22.519Z,1007.99
2019-05-26T08:29:22.464Z,1007.99
2019-05-26T08:30:22.471Z,1008.04
2019-05-26T08:31:22.440Z,1008.00
2019-05-26T08:32:22.458Z,1007.98
2019-05-26T08:33:22.419Z,1008.00
2019-05-26T08:34:22.460Z,1007.98
2019-05-26T08:35:22.419Z,1007.91
2019-05-26T08:36:22.473Z,1007.96
2019-05-26T08:37:22.383Z,1007.95
2019-05-26T08:38:22.385Z,1007.93
2019-05-26T08:39:22.354Z,1007.92
2019-05-26T08:40:22.362Z,1007.92
2019-05-26T08:41:22.332Z,1007.95
2019-05-26T08:42:27.227Z,1007.99
2019-05-26T08:43:23.307Z,1007.91
2019-05-26T08:44:22.322Z,1007.99
2019-05-26T08:45:22.926Z,1007.92
2019-05-26T08:46:22.335Z,1007.88
2019-05-26T08:47:22.264Z,1007.84
2019-05-26T08:48:22.353Z,1007.93
2019-05-26T08:49:22.245Z,1007.87
2019-05-26T08:50:22.253Z,1007.88
2019-05-26T08:51:22.219Z,1007.83
2019-05-26T08:52:22.274Z,1007.79
2019-05-26T08:53:22.201Z,1007.83
2019-05-26T08:54:22.289Z,1007.86
2019-05-26T08:55:22.189Z,1007.87
2019-05-26T08:56:22.201Z,1007.80
2019-05-26T08:57:22.157Z,1007.77
2019-05-26T08:58:22.215Z,1007.80
2019-05-26T08:59:22.140Z,1007.76
2019-05-26T09:00:22.146Z,1007.80
2019-05-26T09:01:22.113Z,1007.73
2019-05-26T09:02:22.138Z,1007.80
2019-05-26T09:03:22.087Z,1007.82
2019-05-26T09:04:23.177Z,1007.73
2019-05-26T09:05:22.084Z,1007.78
2019-05-26T09:06:30.060Z,1007.78
2019-05-26T09:07:22.042Z,1007.81
2019-05-26T09:08:29.555Z,1007.79
2019-05-26T09:09:22.026Z,1007.75
2019-05-26T09:10:22.033Z,1007.73
2019-05-26T09:11:21.999Z,1007.67
2019-05-26T09:12:22.003Z,1007.66
2019-05-26T09:13:21.977Z,1007.75
2019-05-26T09:14:25.388Z,1007.75
2019-05-26T09:15:21.972Z,1007.77
2019-05-26T09:16:22.029Z,1007.76
2019-05-26T09:17:21.931Z,1007.70
2019-05-26T09:18:21.941Z,1007.76
2019-05-26T09:19:21.912Z,1007.72
2019-05-26T09:20:21.923Z,1007.69
2019-05-26T09:21:21.891Z,1007.66
2019-05-26T09:22:21.968Z,1007.72
2019-05-26T09:23:21.864Z,1007.70
2019-05-26T09:24:21.880Z,1007.75
2019-05-26T09:25:21.862Z,1007.73
2019-05-26T09:26:21.893Z,1007.72
2019-05-26T09:27:21.824Z,1007.74
2019-05-26T09:28:21.907Z,1007.73
2019-05-26T09:29:21.797Z,1007.67
2019-05-26T09:30:21.809Z,1007.68
2019-05-26T09:31:21.776Z,1007.67
2019-05-26T09:32:21.835Z,1007.69
2019-05-26T09:33:21.759Z,1007.69
2019-05-26T09:34:21.850Z,1007.75
2019-05-26T09:35:21.745Z,1007.64
2019-05-26T09:36:21.757Z,1007.66
2019-05-26T09:37:21.726Z,1007.74
2019-05-26T09:38:21.771Z,1007.66
2019-05-26T09:39:21.698Z,1007.67
2019-05-26T09:40:21.721Z,1007.64
2019-05-26T09:41:21.670Z,1007.64
2019-05-26T09:42:22.478Z,1007.57
2019-05-26T09:43:21.646Z,1007.56
2019-05-26T09:44:21.711Z,1007.59
2019-05-26T09:45:21.640Z,1007.54
2019-05-26T09:46:21.725Z,1007.54
2019-05-26T09:47:21.606Z,1007.56
2019-05-26T09:48:23.684Z,1007.52
2019-05-26T09:49:21.585Z,1007.48
2019-05-26T09:50:21.611Z,1007.42
2019-05-26T09:51:21.564Z,1007.46
2019-05-26T09:52:30.571Z,1007.50
2019-05-26T09:53:21.540Z,1007.50
2019-05-26T09:54:21.577Z,1007.43
2019-05-26T09:55:21.521Z,1007.44
2019-05-26T09:56:22.542Z,1007.42
2019-05-26T09:57:21.535Z,1007.49
2019-05-26T09:58:21.500Z,1007.48
2019-05-26T09:59:21.474Z,1007.52
2019-05-26T10:00:21.469Z,1007.46
2019-05-26T10:01:21.483Z,1007.46
2019-05-26T10:02:21.528Z,1007.46
2019-05-26T10:03:21.430Z,1007.48
2019-05-26T10:04:21.441Z,1007.40
2019-05-26T10:05:21.408Z,1007.50
2019-05-26T10:06:21.489Z,1007.47
2019-05-26T10:07:21.390Z,1007.42
2019-05-26T10:08:21.465Z,1007.44
2019-05-26T10:09:21.363Z,1007.51
2019-05-26T10:10:21.356Z,1007.48
2019-05-26T10:11:21.357Z,1007.44
2019-05-26T10:12:21.391Z,1007.50
2019-05-26T10:13:31.477Z,1007.46
2019-05-26T10:14:22.305Z,1007.42
2019-05-26T10:15:21.308Z,1007.43
2019-05-26T10:16:21.296Z,1007.43
2019-05-26T10:17:23.331Z,1007.41
2019-05-26T10:18:21.260Z,1007.47
2019-05-26T10:19:21.335Z,1007.34
2019-05-26T10:20:21.240Z,1007.40
2019-05-26T10:21:21.280Z,1007.36
2019-05-26T10:22:21.215Z,1007.38
2019-05-26T10:23:21.262Z,1007.33
2019-05-26T10:24:21.195Z,1007.26
2019-05-26T10:25:21.274Z,1007.30
2019-05-26T10:26:21.186Z,1007.34
2019-05-26T10:27:21.187Z,1007.32
2019-05-26T10:28:21.152Z,1007.27
2019-05-26T10:29:21.199Z,1007.41
2019-05-26T10:30:21.137Z,1007.41
2019-05-26T10:31:21.255Z,1007.43
2019-05-26T10:32:21.105Z,1007.33
2019-05-26T10:33:28.087Z,1007.40
2019-05-26T10:34:21.086Z,1007.29
2019-05-26T10:36:21.073Z,1007.26
2019-05-26T10:37:22.073Z,1007.28
2019-05-26T10:38:21.041Z,1007.30
2019-05-26T10:39:21.063Z,1007.31
2019-05-26T10:40:21.024Z,1007.37
2019-05-26T10:41:21.111Z,1007.26
2019-05-26T10:42:20.998Z,1007.19
2019-05-26T10:43:21.090Z,1007.26
2019-05-26T10:44:20.974Z,1007.26
2019-05-26T10:45:21.001Z,1007.34
2019-05-26T10:46:20.966Z,1007.20
2019-05-26T10:47:21.016Z,1007.33
2019-05-26T10:48:20.934Z,1007.19
2019-05-26T10:49:21.032Z,1007.13
2019-05-26T10:50:20.908Z,1007.17
2019-05-26T10:51:20.984Z,1007.09
2019-05-26T10:52:20.890Z,1007.19
2019-05-26T10:53:21.015Z,1007.10
2019-05-26T10:54:20.864Z,1007.13
2019-05-26T10:55:20.969Z,1007.12
2019-05-26T10:56:20.857Z,1006.99
2019-05-26T10:57:20.880Z,1007.03
2019-05-26T10:58:20.829Z,1007.09
2019-05-26T10:59:20.894Z,1007.05
2019-05-26T11:00:20.805Z,1007.04
2019-05-26T11:01:20.838Z,1006.98
2019-05-26T11:02:20.781Z,1007.03
2019-05-26T11:03:20.819Z,1007.06
2019-05-26T11:04:20.760Z,1007.03
2019-05-26T11:05:20.832Z,1007.02
2019-05-26T11:06:20.750Z,1007.08
2019-05-26T11:07:20.744Z,1007.06
2019-05-26T11:08:20.715Z,1007.06
2019-05-26T11:09:20.758Z,1007.01
2019-05-26T11:10:20.694Z,1006.99
2019-05-26T11:11:20.800Z,1006.89
2019-05-26T11:12:20.669Z,1006.97
2019-05-26T11:13:20.682Z,1006.93
2019-05-26T11:14:20.644Z,1006.92
2019-05-26T11:15:20.695Z,1006.91
2019-05-26T11:16:20.642Z,1006.95
2019-05-26T11:17:20.713Z,1006.91
2019-05-26T11:18:20.609Z,1006.93
2019-05-26T11:19:27.586Z,1006.85
2019-05-26T11:20:20.586Z,1006.97
2019-05-26T11:21:22.616Z,1006.95
2019-05-26T11:22:20.560Z,1006.91
2019-05-26T11:23:21.569Z,1006.92
2019-05-26T11:24:20.539Z,1006.86
2019-05-26T11:25:20.559Z,1006.82
2019-05-26T11:26:20.529Z,1006.76
2019-05-26T11:27:20.574Z,1006.80
2019-05-26T11:28:20.497Z,1006.89
2019-05-26T11:29:20.588Z,1006.75
2019-05-26T11:30:20.474Z,1006.77
2019-05-26T11:31:20.534Z,1006.73
2019-05-26T11:32:20.451Z,1006.73
2019-05-26T11:33:20.572Z,1006.76
2019-05-26T11:34:20.477Z,1006.77
2019-05-26T11:35:20.524Z,1006.70
2019-05-26T11:36:20.435Z,1006.71
2019-05-26T11:37:20.435Z,1006.83
2019-05-26T11:38:20.383Z,1006.68
2019-05-26T11:39:20.450Z,1006.66
2019-05-26T11:40:20.362Z,1006.68
2019-05-26T11:41:20.398Z,1006.83
2019-05-26T11:42:20.340Z,1006.78
2019-05-26T11:43:20.377Z,1006.67
2019-05-26T11:44:20.320Z,1006.82
2019-05-26T11:45:20.391Z,1006.70
2019-05-26T11:46:20.317Z,1006.69
2019-05-26T11:47:20.301Z,1006.75
2019-05-26T11:48:20.277Z,1006.63
2019-05-26T11:49:20.317Z,1006.65
2019-05-26T11:50:20.295Z,1006.65
2019-05-26T11:51:20.365Z,1006.55
2019-05-26T11:52:20.499Z,1006.49
2019-05-26T11:53:20.240Z,1006.55
2019-05-26T11:54:20.210Z,1006.49
2019-05-26T11:55:20.257Z,1006.58
2019-05-26T11:56:20.206Z,1006.48
2019-05-26T11:57:20.267Z,1006.49
2019-05-26T11:58:20.168Z,1006.53
2019-05-26T11:59:20.180Z,1006.61
2019-05-26T12:00:20.144Z,1006.57
2019-05-26T12:01:22.937Z,1006.54
2019-05-26T12:02:20.123Z,1006.56
2019-05-26T12:03:29.115Z,1006.50
2019-05-26T12:04:20.102Z,1006.58
2019-05-26T12:05:21.143Z,1006.55
2019-05-26T12:06:20.084Z,1006.52